Portada
METAR-TAF:

METAR-TAF

Aeroports :

Yüksekova, Turquia

latitud: 37-33-06N, longitud: 44-14-01E, altitud: 1950 m

Observació

L'informe es va fer fa 9 hores i 31 minuts, a les 18:50 UTC
Vent 2 kt del Oest
Temperatura -5°C
Humitat 63%
Pressió 1022 hPa
Visibilitat: 6000 m

METAR: LTCW 201850Z 26002KT 6000 NSC M05/M11 Q1022

Hora: 07:21 (04:21 UTC)

Pronòstic

L'informe es va fer fa 2 hores i 41 minuts, a les 01:40 UTC
Pronòstic vàlid del 21 a les 03 UTC al 21 a les 12 UTC
Vent 2 kt amb direcció variable
Visibilitat: 4500 m
boirina
Evolucionant progressivament
l' 21 a les 06 UTC al 21 a les 08 UTC
Vent 13 kt del Sud/Sud-Oest
Visibilitat: 8000 m

TAF: LTCW 210140Z 2103/2112 VRB02KT 4500 BR NSC BECMG 2106/2108 21013KT 8000

Observacions i pronòstics meteorològics de més de 4000 aeroports (METAR i TAF).

Les estacions disponibles són els punts grocs i vermells al mapa.

Posi el ratolí al punt desitjat per veure el nom de l'estació.

Feu clic per veure les observacions i els pronòstics meteorològics.

Per canviar el mapa: feu clic els botons verds amb una creu de color negre per apropar; al botó verd amb un guió per allunyar la imatge; o en les fletxes verdes per a mapes adjacents.


METAR-TAF: